AQQ10 IFIS: Internet Flight Information System
logo dgac
Martes 07 de Febrero del 2023

Metar

Buscar por aerodromo o helipuerto
Ingrese nombre de aeródromo, localidad o designador OACI:


METAR del 07-02-2023 a las 18:00 UTC
Para mayor información visite www.meteochile.cl
METAR SCCF 071800Z 28021KT 9999 SCT150 23/08 Q1023
Viento: dirección 280 grados, velocidad 21 nudos
Visibilidad: 10 km o más
Nubes: Nubosidad parcial a 15000 pies sobre el nivel del aeródromo
Temperatura: 23 °C
Rocío: 8 °C
Humedad_relativa: 38%
Presión: 1023 hPa
METAR del 07-02-2023 a las 18:00 UTC
Para mayor información visite www.meteochile.cl
METAR SCSE 071800Z 27013KT 250V310 9999 FEW015 20/15 Q1012
Viento: dirección 270 grados, velocidad 13 nudos
Viento con dirección variable entre 250 y 310 grados
Visibilidad: 10 km o más
Nubes: Escasa nubosidad a 1500 pies sobre el nivel del aeródromo
Temperatura: 20 °C
Rocío: 15 °C
Humedad_relativa: 73%
Presión: 1012 hPa
METAR del 07-02-2023 a las 18:00 UTC
Para mayor información visite www.meteochile.cl
METAR SCPQ 071800Z 14006KT 060V230 9999 FEW030 22/13 Q1016
Viento: dirección 140 grados, velocidad 6 nudos
Viento con dirección variable entre 060 y 230 grados
Visibilidad: 10 km o más
Nubes: Escasa nubosidad a 3000 pies sobre el nivel del aeródromo
Temperatura: 22 °C
Rocío: 13 °C
Humedad_relativa: 57%
Presión: 1016 hPa
METAR del 07-02-2023 a las 18:00 UTC
Para mayor información visite www.meteochile.cl
METAR SCNT 071800Z VRB06KT 9999 FEW025 BKN030 18/09 Q1006
Viento: dirección variable, velocidad 6 nudos
Visibilidad: 10 km o más
Nubes: Escasa nubosidad a 2500 pies sobre el nivel del aeródromo
Nubes: Nublado a 3000 pies sobre el nivel del aeródromo
Temperatura: 18 °C
Rocío: 9 °C
Humedad_relativa: 56%
Presión: 1006 hPa
METAR del 07-02-2023 a las 18:00 UTC
Para mayor información visite www.meteochile.cl
METAR SCPD 071800Z 17009KT 120V210 4000 HZ NSC 33/12 Q1012
Viento: dirección 170 grados, velocidad 9 nudos
Viento con dirección variable entre 120 y 210 grados
Visibilidad: 4000 metros
Bruma
Sin nubes bajo los 5000 pies o bajo del MSA (Mínimo de Seguridad del Aeródromo)
Temperatura: 33 °C
Rocío: 12 °C
Humedad_relativa: 28%
Presión: 1012 hPa
METAR del 07-02-2023 a las 18:00 UTC
Para mayor información visite www.meteochile.cl
METAR SCBA 071800Z 31025KT 9999 FEW045 21/09 Q1011
Viento: dirección 310 grados, velocidad 25 nudos
Visibilidad: 10 km o más
Nubes: Escasa nubosidad a 4500 pies sobre el nivel del aeródromo
Temperatura: 21 °C
Rocío: 9 °C
Humedad_relativa: 46%
Presión: 1011 hPa
METAR del 07-02-2023 a las 18:00 UTC
Para mayor información visite www.meteochile.cl
METAR SCVD 071800Z VRB07KT 9999 NSC 27/09 Q1013
Viento: dirección variable, velocidad 7 nudos
Visibilidad: 10 km o más
Sin nubes bajo los 5000 pies o bajo del MSA (Mínimo de Seguridad del Aeródromo)
Temperatura: 27 °C
Rocío: 9 °C
Humedad_relativa: 32%
Presión: 1013 hPa
METAR del 07-02-2023 a las 18:00 UTC
Para mayor información visite www.meteochile.cl
METAR SCRM 071800Z 27014KT 9999 FEW013 03/01 Q0986 NOSIG
Viento: dirección 270 grados, velocidad 14 nudos
Visibilidad: 10 km o más
Nubes: Escasa nubosidad a 1300 pies sobre el nivel del aeródromo
Temperatura: 3 °C
Rocío: 1 °C
Humedad_relativa: 87%
Presión: 986 hPa
No se esperan cambios significativos en las próximas 2 horas
METAR del 07-02-2023 a las 18:00 UTC
Para mayor información visite www.meteochile.cl
METAR SCFA 071800Z 19013KT CAVOK 23/17 Q1011 NOSIG
Viento: dirección 190 grados, velocidad 13 nudos
Visibilidad: 10 km o más,
    sin nubes bajo los 5.000 pies o bajo del MSA (Mínimo de Seguridad del Aeródromo),
    sin cumulonimbus, y sin fenómenos de tiempo significativo en el aeródromo o alrededores
Temperatura: 23 °C
Rocío: 17 °C
Humedad_relativa: 69%
Presión: 1011 hPa
No se esperan cambios significativos en las próximas 2 horas
METAR del 07-02-2023 a las 18:00 UTC
Para mayor información visite www.meteochile.cl
METAR SCIE 071800Z 21009KT 8000 NSC 23/12 Q1012 RMK FU 2000FT SW
Viento: dirección 210 grados, velocidad 9 nudos
Visibilidad: 8000 metros
Sin nubes bajo los 5000 pies o bajo del MSA (Mínimo de Seguridad del Aeródromo)
Temperatura: 23 °C
Rocío: 12 °C
Humedad_relativa: 50%
Presión: 1012 hPa
Información adicional:
Humo